sensor_id;sensor_type;location;lat;lon;timestamp;P1;durP1;ratioP1;P2;durP2;ratioP2
13032;SDS011;6583;42.632;23.298;2023-08-12T00:01:59;3.70;;;3.40;;
13032;SDS011;6583;42.632;23.298;2023-08-12T00:04:25;3.78;;;3.47;;
13032;SDS011;6583;42.632;23.298;2023-08-12T00:06:52;3.67;;;3.38;;
13032;SDS011;6583;42.632;23.298;2023-08-12T00:09:19;3.67;;;3.28;;
13032;SDS011;6583;42.632;23.298;2023-08-12T00:11:45;4.20;;;3.42;;
13032;SDS011;6583;42.632;23.298;2023-08-12T00:14:12;4.00;;;3.55;;
13032;SDS011;6583;42.632;23.298;2023-08-12T00:16:40;3.70;;;3.40;;
13032;SDS011;6583;42.632;23.298;2023-08-12T00:19:07;3.60;;;3.30;;
13032;SDS011;6583;42.632;23.298;2023-08-12T00:21:34;3.47;;;3.28;;
13032;SDS011;6583;42.632;23.298;2023-08-12T00:24:01;4.25;;;3.50;;
13032;SDS011;6583;42.632;23.298;2023-08-12T00:26:27;3.78;;;3.47;;
13032;SDS011;6583;42.632;23.298;2023-08-12T00:28:54;3.55;;;3.35;;
13032;SDS011;6583;42.632;23.298;2023-08-12T00:31:21;3.33;;;3.03;;
13032;SDS011;6583;42.632;23.298;2023-08-12T00:33:49;3.38;;;3.10;;
13032;SDS011;6583;42.632;23.298;2023-08-12T00:36:15;3.40;;;3.10;;
13032;SDS011;6583;42.632;23.298;2023-08-12T00:38:42;3.10;;;2.90;;
13032;SDS011;6583;42.632;23.298;2023-08-12T00:41:09;4.03;;;3.55;;
13032;SDS011;6583;42.632;23.298;2023-08-12T00:43:35;3.63;;;3.33;;
13032;SDS011;6583;42.632;23.298;2023-08-12T00:46:01;4.20;;;3.80;;
13032;SDS011;6583;42.632;23.298;2023-08-12T00:48:30;3.63;;;3.35;;
13032;SDS011;6583;42.632;23.298;2023-08-12T00:50:59;4.32;;;3.75;;
13032;SDS011;6583;42.632;23.298;2023-08-12T00:53:26;3.85;;;3.55;;
13032;SDS011;6583;42.632;23.298;2023-08-12T00:55:53;3.50;;;3.20;;
13032;SDS011;6583;42.632;23.298;2023-08-12T00:58:20;5.28;;;3.40;;
13032;SDS011;6583;42.632;23.298;2023-08-12T01:00:47;3.97;;;3.67;;
13032;SDS011;6583;42.632;23.298;2023-08-12T01:03:14;3.30;;;3.10;;
13032;SDS011;6583;42.632;23.298;2023-08-12T01:05:41;3.83;;;3.55;;
13032;SDS011;6583;42.632;23.298;2023-08-12T01:08:10;4.15;;;3.58;;
13032;SDS011;6583;42.632;23.298;2023-08-12T01:10:36;3.80;;;3.42;;
13032;SDS011;6583;42.632;23.298;2023-08-12T01:13:13;3.92;;;3.63;;
13032;SDS011;6583;42.632;23.298;2023-08-12T01:15:46;3.55;;;3.35;;
13032;SDS011;6583;42.632;23.298;2023-08-12T01:18:16;3.63;;;3.38;;
13032;SDS011;6583;42.632;23.298;2023-08-12T01:20:44;3.70;;;3.40;;
13032;SDS011;6583;42.632;23.298;2023-08-12T01:23:14;4.05;;;3.40;;
13032;SDS011;6583;42.632;23.298;2023-08-12T01:25:40;5.10;;;3.50;;
13032;SDS011;6583;42.632;23.298;2023-08-12T01:28:07;3.40;;;3.20;;
13032;SDS011;6583;42.632;23.298;2023-08-12T01:30:35;4.00;;;3.70;;
13032;SDS011;6583;42.632;23.298;2023-08-12T01:33:24;3.88;;;3.58;;
13032;SDS011;6583;42.632;23.298;2023-08-12T01:35:58;3.67;;;3.38;;
13032;SDS011;6583;42.632;23.298;2023-08-12T01:38:34;3.88;;;3.58;;
13032;SDS011;6583;42.632;23.298;2023-08-12T01:41:04;4.30;;;3.90;;
13032;SDS011;6583;42.632;23.298;2023-08-12T01:43:32;4.10;;;3.67;;
13032;SDS011;6583;42.632;23.298;2023-08-12T01:45:59;3.95;;;3.65;;
13032;SDS011;6583;42.632;23.298;2023-08-12T01:48:26;4.75;;;3.47;;
13032;SDS011;6583;42.632;23.298;2023-08-12T01:50:53;3.92;;;3.63;;
13032;SDS011;6583;42.632;23.298;2023-08-12T01:53:19;4.10;;;3.70;;
13032;SDS011;6583;42.632;23.298;2023-08-12T01:55:49;3.95;;;3.63;;
13032;SDS011;6583;42.632;23.298;2023-08-12T01:58:16;3.80;;;3.50;;
13032;SDS011;6583;42.632;23.298;2023-08-12T02:00:43;4.07;;;3.78;;
13032;SDS011;6583;42.632;23.298;2023-08-12T02:03:12;3.40;;;3.10;;
13032;SDS011;6583;42.632;23.298;2023-08-12T02:05:39;3.80;;;3.50;;
13032;SDS011;6583;42.632;23.298;2023-08-12T02:08:06;4.10;;;3.47;;
13032;SDS011;6583;42.632;23.298;2023-08-12T02:10:33;4.82;;;3.40;;
13032;SDS011;6583;42.632;23.298;2023-08-12T02:13:01;3.80;;;3.53;;
13032;SDS011;6583;42.632;23.298;2023-08-12T02:15:28;3.70;;;3.40;;
13032;SDS011;6583;42.632;23.298;2023-08-12T02:17:55;3.67;;;3.38;;
13032;SDS011;6583;42.632;23.298;2023-08-12T02:20:21;4.05;;;3.42;;
13032;SDS011;6583;42.632;23.298;2023-08-12T02:22:48;3.55;;;3.25;;
13032;SDS011;6583;42.632;23.298;2023-08-12T02:25:15;3.60;;;3.30;;
13032;SDS011;6583;42.632;23.298;2023-08-12T02:27:41;4.63;;;3.70;;
13032;SDS011;6583;42.632;23.298;2023-08-12T02:30:10;4.00;;;3.60;;
13032;SDS011;6583;42.632;23.298;2023-08-12T02:32:37;3.75;;;3.45;;
13032;SDS011;6583;42.632;23.298;2023-08-12T02:35:05;4.15;;;3.45;;
13032;SDS011;6583;42.632;23.298;2023-08-12T02:37:32;3.97;;;3.67;;
13032;SDS011;6583;42.632;23.298;2023-08-12T02:39:59;4.50;;;3.65;;
13032;SDS011;6583;42.632;23.298;2023-08-12T02:42:25;3.90;;;3.60;;
13032;SDS011;6583;42.632;23.298;2023-08-12T02:44:52;3.58;;;3.38;;
13032;SDS011;6583;42.632;23.298;2023-08-12T02:47:20;3.78;;;3.47;;
13032;SDS011;6583;42.632;23.298;2023-08-12T02:49:46;3.95;;;3.60;;
13032;SDS011;6583;42.632;23.298;2023-08-12T02:52:13;3.70;;;3.50;;
13032;SDS011;6583;42.632;23.298;2023-08-12T02:54:40;4.30;;;3.67;;
13032;SDS011;6583;42.632;23.298;2023-08-12T02:57:07;3.72;;;3.53;;
13032;SDS011;6583;42.632;23.298;2023-08-12T02:59:33;3.88;;;3.55;;
13032;SDS011;6583;42.632;23.298;2023-08-12T03:02:00;4.10;;;3.80;;
13032;SDS011;6583;42.632;23.298;2023-08-12T03:04:29;3.92;;;3.63;;
13032;SDS011;6583;42.632;23.298;2023-08-12T03:06:56;3.90;;;3.60;;
13032;SDS011;6583;42.632;23.298;2023-08-12T03:09:23;3.80;;;3.50;;
13032;SDS011;6583;42.632;23.298;2023-08-12T03:11:49;3.88;;;3.42;;
13032;SDS011;6583;42.632;23.298;2023-08-12T03:14:16;4.30;;;4.00;;
13032;SDS011;6583;42.632;23.298;2023-08-12T03:16:42;4.38;;;3.97;;
13032;SDS011;6583;42.632;23.298;2023-08-12T03:19:09;4.50;;;4.20;;
13032;SDS011;6583;42.632;23.298;2023-08-12T03:21:37;4.47;;;4.07;;
13032;SDS011;6583;42.632;23.298;2023-08-12T03:24:04;4.53;;;4.22;;
13032;SDS011;6583;42.632;23.298;2023-08-12T03:26:31;4.38;;;4.07;;
13032;SDS011;6583;42.632;23.298;2023-08-12T03:28:58;4.47;;;4.18;;
13032;SDS011;6583;42.632;23.298;2023-08-12T03:31:25;3.95;;;3.65;;
13032;SDS011;6583;42.632;23.298;2023-08-12T03:33:51;4.40;;;4.10;;
13032;SDS011;6583;42.632;23.298;2023-08-12T03:36:18;3.83;;;3.53;;
13032;SDS011;6583;42.632;23.298;2023-08-12T03:38:46;4.43;;;4.00;;
13032;SDS011;6583;42.632;23.298;2023-08-12T03:41:13;5.20;;;4.60;;
13032;SDS011;6583;42.632;23.298;2023-08-12T03:43:39;4.60;;;4.20;;
13032;SDS011;6583;42.632;23.298;2023-08-12T03:46:06;4.70;;;4.30;;
13032;SDS011;6583;42.632;23.298;2023-08-12T03:48:33;4.43;;;4.13;;
13032;SDS011;6583;42.632;23.298;2023-08-12T03:50:59;4.50;;;4.20;;
13032;SDS011;6583;42.632;23.298;2023-08-12T03:53:26;4.97;;;4.20;;
13032;SDS011;6583;42.632;23.298;2023-08-12T03:55:54;4.10;;;3.80;;
13032;SDS011;6583;42.632;23.298;2023-08-12T03:58:21;4.55;;;4.20;;
13032;SDS011;6583;42.632;23.298;2023-08-12T04:00:47;4.38;;;4.07;;
13032;SDS011;6583;42.632;23.298;2023-08-12T04:03:14;4.65;;;4.35;;
13032;SDS011;6583;42.632;23.298;2023-08-12T04:05:46;4.20;;;3.90;;
13032;SDS011;6583;42.632;23.298;2023-08-12T04:08:14;4.43;;;4.13;;
13032;SDS011;6583;42.632;23.298;2023-08-12T04:10:43;4.72;;;4.32;;
13032;SDS011;6583;42.632;23.298;2023-08-12T04:13:12;4.38;;;3.97;;
13032;SDS011;6583;42.632;23.298;2023-08-12T04:15:39;4.50;;;4.20;;
13032;SDS011;6583;42.632;23.298;2023-08-12T04:18:05;4.60;;;4.15;;
13032;SDS011;6583;42.632;23.298;2023-08-12T04:20:32;4.68;;;4.35;;
13032;SDS011;6583;42.632;23.298;2023-08-12T04:22:59;4.45;;;4.07;;
13032;SDS011;6583;42.632;23.298;2023-08-12T04:25:26;4.43;;;4.03;;
13032;SDS011;6583;42.632;23.298;2023-08-12T04:27:52;4.53;;;4.13;;
13032;SDS011;6583;42.632;23.298;2023-08-12T04:30:20;3.83;;;3.63;;
13032;SDS011;6583;42.632;23.298;2023-08-12T04:32:47;3.80;;;3.50;;
13032;SDS011;6583;42.632;23.298;2023-08-12T04:35:14;3.63;;;3.33;;
13032;SDS011;6583;42.632;23.298;2023-08-12T04:37:40;3.97;;;3.55;;
13032;SDS011;6583;42.632;23.298;2023-08-12T04:40:08;3.80;;;3.50;;
13032;SDS011;6583;42.632;23.298;2023-08-12T04:42:36;3.75;;;3.40;;
13032;SDS011;6583;42.632;23.298;2023-08-12T04:45:03;3.28;;;2.90;;
13032;SDS011;6583;42.632;23.298;2023-08-12T04:47:31;3.80;;;3.22;;
13032;SDS011;6583;42.632;23.298;2023-08-12T04:49:58;3.63;;;3.33;;
13032;SDS011;6583;42.632;23.298;2023-08-12T04:52:25;4.60;;;3.30;;
13032;SDS011;6583;42.632;23.298;2023-08-12T04:54:52;3.08;;;2.88;;
13032;SDS011;6583;42.632;23.298;2023-08-12T04:57:19;3.95;;;3.50;;
13032;SDS011;6583;42.632;23.298;2023-08-12T04:59:46;4.10;;;3.20;;
13032;SDS011;6583;42.632;23.298;2023-08-12T05:02:12;3.60;;;3.30;;
13032;SDS011;6583;42.632;23.298;2023-08-12T05:04:40;3.50;;;3.20;;
13032;SDS011;6583;42.632;23.298;2023-08-12T05:07:07;3.40;;;3.20;;
13032;SDS011;6583;42.632;23.298;2023-08-12T05:09:34;3.85;;;3.15;;
13032;SDS011;6583;42.632;23.298;2023-08-12T05:12:00;3.35;;;3.05;;
13032;SDS011;6583;42.632;23.298;2023-08-12T05:14:27;3.70;;;3.40;;
13032;SDS011;6583;42.632;23.298;2023-08-12T05:16:53;3.65;;;3.05;;
13032;SDS011;6583;42.632;23.298;2023-08-12T05:19:20;4.32;;;2.80;;
13032;SDS011;6583;42.632;23.298;2023-08-12T05:21:48;3.10;;;2.90;;
13032;SDS011;6583;42.632;23.298;2023-08-12T05:24:15;3.35;;;3.05;;
13032;SDS011;6583;42.632;23.298;2023-08-12T05:26:42;3.22;;;2.90;;
13032;SDS011;6583;42.632;23.298;2023-08-12T05:29:09;4.57;;;3.20;;
13032;SDS011;6583;42.632;23.298;2023-08-12T05:31:35;3.42;;;3.13;;
13032;SDS011;6583;42.632;23.298;2023-08-12T05:34:02;3.80;;;3.08;;
13032;SDS011;6583;42.632;23.298;2023-08-12T05:36:29;4.43;;;3.20;;
13032;SDS011;6583;42.632;23.298;2023-08-12T05:38:58;5.15;;;3.45;;
13032;SDS011;6583;42.632;23.298;2023-08-12T05:41:25;3.53;;;3.25;;
13032;SDS011;6583;42.632;23.298;2023-08-12T05:43:51;3.70;;;3.40;;
13032;SDS011;6583;42.632;23.298;2023-08-12T05:46:18;4.22;;;3.42;;
13032;SDS011;6583;42.632;23.298;2023-08-12T05:48:45;4.30;;;3.22;;
13032;SDS011;6583;42.632;23.298;2023-08-12T05:51:11;4.65;;;3.35;;
13032;SDS011;6583;42.632;23.298;2023-08-12T05:53:38;5.32;;;3.90;;
13032;SDS011;6583;42.632;23.298;2023-08-12T05:56:06;4.07;;;3.53;;
13032;SDS011;6583;42.632;23.298;2023-08-12T05:58:33;3.92;;;3.47;;
13032;SDS011;6583;42.632;23.298;2023-08-12T06:00:59;3.92;;;3.63;;
13032;SDS011;6583;42.632;23.298;2023-08-12T06:03:26;4.22;;;3.45;;
13032;SDS011;6583;42.632;23.298;2023-08-12T06:05:52;3.45;;;3.15;;
13032;SDS011;6583;42.632;23.298;2023-08-12T06:08:19;5.25;;;3.55;;
13032;SDS011;6583;42.632;23.298;2023-08-12T06:10:46;3.53;;;3.22;;
13032;SDS011;6583;42.632;23.298;2023-08-12T06:13:14;4.93;;;3.53;;
13032;SDS011;6583;42.632;23.298;2023-08-12T06:15:41;3.75;;;3.45;;
13032;SDS011;6583;42.632;23.298;2023-08-12T06:18:07;3.05;;;2.75;;
13032;SDS011;6583;42.632;23.298;2023-08-12T06:20:34;2.80;;;2.60;;
13032;SDS011;6583;42.632;23.298;2023-08-12T06:23:00;4.18;;;2.90;;
13032;SDS011;6583;42.632;23.298;2023-08-12T06:25:27;3.25;;;2.95;;
13032;SDS011;6583;42.632;23.298;2023-08-12T06:27:54;3.00;;;2.80;;
13032;SDS011;6583;42.632;23.298;2023-08-12T06:30:22;3.25;;;2.95;;
13032;SDS011;6583;42.632;23.298;2023-08-12T06:32:48;2.97;;;2.75;;
13032;SDS011;6583;42.632;23.298;2023-08-12T06:35:15;3.03;;;2.67;;
13032;SDS011;6583;42.632;23.298;2023-08-12T06:37:42;3.00;;;2.72;;
13032;SDS011;6583;42.632;23.298;2023-08-12T06:40:09;4.30;;;3.00;;
13032;SDS011;6583;42.632;23.298;2023-08-12T06:42:35;3.75;;;2.80;;
13032;SDS011;6583;42.632;23.298;2023-08-12T06:45:02;2.90;;;2.70;;
13032;SDS011;6583;42.632;23.298;2023-08-12T06:47:31;3.00;;;2.80;;
13032;SDS011;6583;42.632;23.298;2023-08-12T06:49:58;3.05;;;2.60;;
13032;SDS011;6583;42.632;23.298;2023-08-12T06:52:24;4.05;;;3.33;;
13032;SDS011;6583;42.632;23.298;2023-08-12T06:54:51;3.58;;;3.10;;
13032;SDS011;6583;42.632;23.298;2023-08-12T06:57:18;3.75;;;3.10;;
13032;SDS011;6583;42.632;23.298;2023-08-12T06:59:44;3.10;;;2.90;;
13032;SDS011;6583;42.632;23.298;2023-08-12T07:02:11;3.67;;;2.90;;
13032;SDS011;6583;42.632;23.298;2023-08-12T07:04:39;3.92;;;2.90;;
13032;SDS011;6583;42.632;23.298;2023-08-12T07:07:06;3.78;;;3.30;;
13032;SDS011;6583;42.632;23.298;2023-08-12T07:09:33;3.72;;;2.92;;
13032;SDS011;6583;42.632;23.298;2023-08-12T07:11:59;3.20;;;3.00;;
13032;SDS011;6583;42.632;23.298;2023-08-12T07:14:26;4.05;;;2.90;;
13032;SDS011;6583;42.632;23.298;2023-08-12T07:16:54;3.45;;;3.15;;
13032;SDS011;6583;42.632;23.298;2023-08-12T07:19:20;5.22;;;3.25;;
13032;SDS011;6583;42.632;23.298;2023-08-12T07:21:48;5.03;;;3.03;;
13032;SDS011;6583;42.632;23.298;2023-08-12T07:24:15;3.33;;;3.00;;
13032;SDS011;6583;42.632;23.298;2023-08-12T07:26:42;4.35;;;3.03;;
13032;SDS011;6583;42.632;23.298;2023-08-12T07:29:08;3.35;;;3.05;;
13032;SDS011;6583;42.632;23.298;2023-08-12T07:31:35;3.20;;;2.90;;
13032;SDS011;6583;42.632;23.298;2023-08-12T07:34:01;3.38;;;3.08;;
13032;SDS011;6583;42.632;23.298;2023-08-12T07:36:28;5.00;;;3.00;;
13032;SDS011;6583;42.632;23.298;2023-08-12T07:38:56;3.40;;;3.10;;
13032;SDS011;6583;42.632;23.298;2023-08-12T07:41:23;3.38;;;3.08;;
13032;SDS011;6583;42.632;23.298;2023-08-12T07:43:52;5.22;;;3.25;;
13032;SDS011;6583;42.632;23.298;2023-08-12T07:46:19;3.45;;;3.15;;
13032;SDS011;6583;42.632;23.298;2023-08-12T07:48:45;3.10;;;2.90;;
13032;SDS011;6583;42.632;23.298;2023-08-12T07:51:12;3.10;;;2.80;;
13032;SDS011;6583;42.632;23.298;2023-08-12T07:53:39;3.47;;;3.17;;
13032;SDS011;6583;42.632;23.298;2023-08-12T07:56:07;4.07;;;3.10;;
13032;SDS011;6583;42.632;23.298;2023-08-12T07:58:33;3.05;;;2.85;;
13032;SDS011;6583;42.632;23.298;2023-08-12T08:01:00;4.47;;;3.22;;
13032;SDS011;6583;42.632;23.298;2023-08-12T08:03:27;3.58;;;3.28;;
13032;SDS011;6583;42.632;23.298;2023-08-12T08:05:54;3.55;;;3.25;;
13032;SDS011;6583;42.632;23.298;2023-08-12T08:08:21;3.40;;;3.10;;
13032;SDS011;6583;42.632;23.298;2023-08-12T08:10:49;3.55;;;3.25;;
13032;SDS011;6583;42.632;23.298;2023-08-12T08:13:17;3.67;;;3.15;;
13032;SDS011;6583;42.632;23.298;2023-08-12T08:15:44;4.88;;;3.70;;
13032;SDS011;6583;42.632;23.298;2023-08-12T08:18:11;3.65;;;3.30;;
13032;SDS011;6583;42.632;23.298;2023-08-12T08:20:38;4.10;;;3.70;;
13032;SDS011;6583;42.632;23.298;2023-08-12T08:23:04;4.07;;;3.75;;
13032;SDS011;6583;42.632;23.298;2023-08-12T08:25:31;3.88;;;3.53;;
13032;SDS011;6583;42.632;23.298;2023-08-12T08:27:58;3.50;;;3.20;;
13032;SDS011;6583;42.632;23.298;2023-08-12T08:30:26;3.40;;;3.10;;
13032;SDS011;6583;42.632;23.298;2023-08-12T08:32:53;4.20;;;3.55;;
13032;SDS011;6583;42.632;23.298;2023-08-12T08:35:19;3.83;;;3.15;;
13032;SDS011;6583;42.632;23.298;2023-08-12T08:37:46;3.60;;;3.30;;
13032;SDS011;6583;42.632;23.298;2023-08-12T08:40:13;3.33;;;3.13;;
13032;SDS011;6583;42.632;23.298;2023-08-12T08:42:39;3.80;;;3.20;;
13032;SDS011;6583;42.632;23.298;2023-08-12T08:45:11;3.50;;;3.20;;
13032;SDS011;6583;42.632;23.298;2023-08-12T08:47:41;3.60;;;3.30;;
13032;SDS011;6583;42.632;23.298;2023-08-12T08:50:09;3.25;;;2.95;;
13032;SDS011;6583;42.632;23.298;2023-08-12T08:52:37;3.75;;;3.40;;
13032;SDS011;6583;42.632;23.298;2023-08-12T08:55:04;3.30;;;3.10;;
13032;SDS011;6583;42.632;23.298;2023-08-12T08:57:31;3.97;;;3.58;;
13032;SDS011;6583;42.632;23.298;2023-08-12T08:59:58;3.85;;;3.58;;
13032;SDS011;6583;42.632;23.298;2023-08-12T09:02:25;4.82;;;3.60;;
13032;SDS011;6583;42.632;23.298;2023-08-12T09:04:54;5.45;;;3.53;;
13032;SDS011;6583;42.632;23.298;2023-08-12T09:07:21;3.95;;;3.70;;
13032;SDS011;6583;42.632;23.298;2023-08-12T09:09:48;4.45;;;3.60;;
13032;SDS011;6583;42.632;23.298;2023-08-12T09:12:18;3.70;;;3.38;;
13032;SDS011;6583;42.632;23.298;2023-08-12T09:14:46;3.70;;;3.40;;
13032;SDS011;6583;42.632;23.298;2023-08-12T09:17:14;4.13;;;3.70;;
13032;SDS011;6583;42.632;23.298;2023-08-12T09:19:40;4.57;;;3.60;;
13032;SDS011;6583;42.632;23.298;2023-08-12T09:22:09;4.70;;;4.28;;
13032;SDS011;6583;42.632;23.298;2023-08-12T09:24:35;3.97;;;3.53;;
13032;SDS011;6583;42.632;23.298;2023-08-12T09:27:02;3.58;;;3.28;;
13032;SDS011;6583;42.632;23.298;2023-08-12T09:29:29;3.40;;;3.20;;
13032;SDS011;6583;42.632;23.298;2023-08-12T09:32:05;3.50;;;3.30;;
13032;SDS011;6583;42.632;23.298;2023-08-12T09:34:32;3.80;;;3.35;;
13032;SDS011;6583;42.632;23.298;2023-08-12T09:37:00;3.83;;;3.28;;
13032;SDS011;6583;42.632;23.298;2023-08-12T09:39:29;3.40;;;3.10;;
13032;SDS011;6583;42.632;23.298;2023-08-12T09:41:56;4.18;;;3.42;;
13032;SDS011;6583;42.632;23.298;2023-08-12T09:44:23;3.90;;;3.50;;
13032;SDS011;6583;42.632;23.298;2023-08-12T09:46:52;3.75;;;3.22;;
13032;SDS011;6583;42.632;23.298;2023-08-12T09:49:23;3.22;;;2.92;;
13032;SDS011;6583;42.632;23.298;2023-08-12T09:51:50;3.25;;;2.97;;
13032;SDS011;6583;42.632;23.298;2023-08-12T09:54:17;3.33;;;3.03;;
13032;SDS011;6583;42.632;23.298;2023-08-12T09:56:47;4.57;;;3.10;;
13032;SDS011;6583;42.632;23.298;2023-08-12T09:59:16;3.22;;;3.00;;
13032;SDS011;6583;42.632;23.298;2023-08-12T10:01:45;3.72;;;3.42;;
13032;SDS011;6583;42.632;23.298;2023-08-12T10:04:13;3.10;;;2.90;;
13032;SDS011;6583;42.632;23.298;2023-08-12T10:06:43;3.03;;;2.80;;
13032;SDS011;6583;42.632;23.298;2023-08-12T10:09:10;3.15;;;2.90;;
13032;SDS011;6583;42.632;23.298;2023-08-12T10:11:37;3.53;;;3.15;;
13032;SDS011;6583;42.632;23.298;2023-08-12T10:14:06;3.50;;;3.20;;
13032;SDS011;6583;42.632;23.298;2023-08-12T10:16:34;3.53;;;3.22;;
13032;SDS011;6583;42.632;23.298;2023-08-12T10:19:02;3.15;;;2.90;;
13032;SDS011;6583;42.632;23.298;2023-08-12T10:21:30;3.13;;;2.90;;
13032;SDS011;6583;42.632;23.298;2023-08-12T10:23:58;4.22;;;2.90;;
13032;SDS011;6583;42.632;23.298;2023-08-12T10:26:26;3.00;;;2.80;;
13032;SDS011;6583;42.632;23.298;2023-08-12T10:28:53;3.63;;;3.05;;
13032;SDS011;6583;42.632;23.298;2023-08-12T10:31:22;3.08;;;2.88;;
13032;SDS011;6583;42.632;23.298;2023-08-12T10:33:49;3.17;;;2.88;;
13032;SDS011;6583;42.632;23.298;2023-08-12T10:36:16;3.63;;;3.13;;
13032;SDS011;6583;42.632;23.298;2023-08-12T10:38:44;3.50;;;3.20;;
13032;SDS011;6583;42.632;23.298;2023-08-12T10:41:14;3.28;;;3.05;;
13032;SDS011;6583;42.632;23.298;2023-08-12T10:43:49;3.13;;;2.83;;
13032;SDS011;6583;42.632;23.298;2023-08-12T10:46:22;3.60;;;3.30;;
13032;SDS011;6583;42.632;23.298;2023-08-12T10:48:57;3.22;;;2.75;;
13032;SDS011;6583;42.632;23.298;2023-08-12T10:51:39;2.75;;;2.60;;
13032;SDS011;6583;42.632;23.298;2023-08-12T10:54:14;3.03;;;2.80;;
13032;SDS011;6583;42.632;23.298;2023-08-12T10:59:52;2.78;;;2.58;;
13032;SDS011;6583;42.632;23.298;2023-08-12T11:02:22;2.88;;;2.67;;
13032;SDS011;6583;42.632;23.298;2023-08-12T11:04:53;3.13;;;2.83;;
13032;SDS011;6583;42.632;23.298;2023-08-12T11:07:22;3.00;;;2.70;;
13032;SDS011;6583;42.632;23.298;2023-08-12T11:09:55;2.55;;;2.30;;
13032;SDS011;6583;42.632;23.298;2023-08-12T11:12:29;2.30;;;2.20;;
13032;SDS011;6583;42.632;23.298;2023-08-12T11:14:57;2.45;;;2.28;;
13032;SDS011;6583;42.632;23.298;2023-08-12T11:17:36;2.60;;;2.40;;
13032;SDS011;6583;42.632;23.298;2023-08-12T11:20:04;3.35;;;2.60;;
13032;SDS011;6583;42.632;23.298;2023-08-12T11:22:35;2.60;;;2.40;;
13032;SDS011;6583;42.632;23.298;2023-08-12T11:25:06;2.65;;;2.45;;
13032;SDS011;6583;42.632;23.298;2023-08-12T11:27:42;2.85;;;2.65;;
13032;SDS011;6583;42.632;23.298;2023-08-12T11:30:10;2.75;;;2.65;;
13032;SDS011;6583;42.632;23.298;2023-08-12T11:32:41;2.75;;;2.53;;
13032;SDS011;6583;42.632;23.298;2023-08-12T11:35:09;2.80;;;2.50;;
13032;SDS011;6583;42.632;23.298;2023-08-12T11:37:37;2.70;;;2.50;;
13032;SDS011;6583;42.632;23.298;2023-08-12T11:40:05;2.80;;;2.60;;
13032;SDS011;6583;42.632;23.298;2023-08-12T11:42:35;2.45;;;2.25;;
13032;SDS011;6583;42.632;23.298;2023-08-12T11:45:02;3.33;;;2.70;;
13032;SDS011;6583;42.632;23.298;2023-08-12T11:47:29;3.15;;;2.85;;
13032;SDS011;6583;42.632;23.298;2023-08-12T11:49:57;2.90;;;2.65;;
13032;SDS011;6583;42.632;23.298;2023-08-12T11:52:23;2.47;;;2.28;;
13032;SDS011;6583;42.632;23.298;2023-08-12T11:54:51;2.80;;;2.60;;
13032;SDS011;6583;42.632;23.298;2023-08-12T11:57:18;3.10;;;2.83;;
13032;SDS011;6583;42.632;23.298;2023-08-12T11:59:45;2.92;;;2.50;;
13032;SDS011;6583;42.632;23.298;2023-08-12T12:02:11;4.00;;;2.83;;
13032;SDS011;6583;42.632;23.298;2023-08-12T12:04:39;2.95;;;2.60;;
13032;SDS011;6583;42.632;23.298;2023-08-12T12:07:18;2.97;;;2.78;;
13032;SDS011;6583;42.632;23.298;2023-08-12T12:09:45;2.83;;;2.60;;
13032;SDS011;6583;42.632;23.298;2023-08-12T12:12:12;2.60;;;2.40;;
13032;SDS011;6583;42.632;23.298;2023-08-12T12:14:39;2.42;;;2.15;;
13032;SDS011;6583;42.632;23.298;2023-08-12T12:17:07;2.30;;;2.20;;
13032;SDS011;6583;42.632;23.298;2023-08-12T12:19:34;3.17;;;2.90;;
13032;SDS011;6583;42.632;23.298;2023-08-12T12:22:01;2.60;;;2.40;;
13032;SDS011;6583;42.632;23.298;2023-08-12T12:24:31;2.33;;;2.10;;
13032;SDS011;6583;42.632;23.298;2023-08-12T12:26:58;2.30;;;2.08;;
13032;SDS011;6583;42.632;23.298;2023-08-12T12:29:24;2.50;;;2.35;;
13032;SDS011;6583;42.632;23.298;2023-08-12T12:31:51;2.00;;;1.90;;
13032;SDS011;6583;42.632;23.298;2023-08-12T12:34:18;2.50;;;2.30;;
13032;SDS011;6583;42.632;23.298;2023-08-12T12:36:45;2.58;;;2.33;;
13032;SDS011;6583;42.632;23.298;2023-08-12T12:39:11;2.90;;;2.50;;
13032;SDS011;6583;42.632;23.298;2023-08-12T12:41:39;2.85;;;2.40;;
13032;SDS011;6583;42.632;23.298;2023-08-12T12:44:06;2.85;;;2.58;;
13032;SDS011;6583;42.632;23.298;2023-08-12T12:46:33;3.03;;;2.60;;
13032;SDS011;6583;42.632;23.298;2023-08-12T12:48:59;2.58;;;2.45;;
13032;SDS011;6583;42.632;23.298;2023-08-12T12:51:26;2.47;;;2.38;;
13032;SDS011;6583;42.632;23.298;2023-08-12T12:53:53;3.08;;;2.47;;
13032;SDS011;6583;42.632;23.298;2023-08-12T12:56:20;2.75;;;2.55;;
13032;SDS011;6583;42.632;23.298;2023-08-12T12:58:48;3.35;;;2.78;;
13032;SDS011;6583;42.632;23.298;2023-08-12T13:01:14;2.90;;;2.70;;
13032;SDS011;6583;42.632;23.298;2023-08-12T13:03:41;3.35;;;3.00;;
13032;SDS011;6583;42.632;23.298;2023-08-12T13:06:07;2.60;;;2.40;;
13032;SDS011;6583;42.632;23.298;2023-08-12T13:08:34;2.97;;;2.65;;
13032;SDS011;6583;42.632;23.298;2023-08-12T13:11:01;2.25;;;2.15;;
13032;SDS011;6583;42.632;23.298;2023-08-12T13:13:27;6.38;;;2.60;;
13032;SDS011;6583;42.632;23.298;2023-08-12T13:15:56;2.67;;;2.50;;
13032;SDS011;6583;42.632;23.298;2023-08-12T13:18:22;2.83;;;2.63;;
13032;SDS011;6583;42.632;23.298;2023-08-12T13:20:49;2.95;;;2.75;;
13032;SDS011;6583;42.632;23.298;2023-08-12T13:23:16;2.72;;;2.53;;
13032;SDS011;6583;42.632;23.298;2023-08-12T13:25:42;4.05;;;2.83;;
13032;SDS011;6583;42.632;23.298;2023-08-12T13:28:09;2.83;;;2.63;;
13032;SDS011;6583;42.632;23.298;2023-08-12T13:30:35;2.72;;;2.60;;
13032;SDS011;6583;42.632;23.298;2023-08-12T13:33:07;2.78;;;2.58;;
13032;SDS011;6583;42.632;23.298;2023-08-12T13:35:33;2.65;;;2.47;;
13032;SDS011;6583;42.632;23.298;2023-08-12T13:38:00;3.10;;;2.80;;
13032;SDS011;6583;42.632;23.298;2023-08-12T13:40:27;2.75;;;2.55;;
13032;SDS011;6583;42.632;23.298;2023-08-12T13:42:53;2.70;;;2.50;;
13032;SDS011;6583;42.632;23.298;2023-08-12T13:45:20;2.78;;;2.42;;
13032;SDS011;6583;42.632;23.298;2023-08-12T13:47:47;2.83;;;2.63;;
13032;SDS011;6583;42.632;23.298;2023-08-12T13:50:15;2.63;;;2.40;;
13032;SDS011;6583;42.632;23.298;2023-08-12T13:52:42;2.70;;;2.50;;
13032;SDS011;6583;42.632;23.298;2023-08-12T13:55:09;2.80;;;2.60;;
13032;SDS011;6583;42.632;23.298;2023-08-12T13:57:35;2.60;;;2.40;;
13032;SDS011;6583;42.632;23.298;2023-08-12T14:00:02;2.67;;;2.47;;
13032;SDS011;6583;42.632;23.298;2023-08-12T14:02:34;2.95;;;2.72;;
13032;SDS011;6583;42.632;23.298;2023-08-12T14:05:01;2.83;;;2.40;;
13032;SDS011;6583;42.632;23.298;2023-08-12T14:07:29;3.55;;;2.20;;
13032;SDS011;6583;42.632;23.298;2023-08-12T14:09:56;2.65;;;2.40;;
13032;SDS011;6583;42.632;23.298;2023-08-12T14:12:22;2.70;;;2.50;;
13032;SDS011;6583;42.632;23.298;2023-08-12T14:14:49;2.92;;;2.70;;
13032;SDS011;6583;42.632;23.298;2023-08-12T14:17:16;2.72;;;2.35;;
13032;SDS011;6583;42.632;23.298;2023-08-12T14:19:43;2.60;;;2.40;;
13032;SDS011;6583;42.632;23.298;2023-08-12T14:22:10;3.58;;;2.40;;
13032;SDS011;6583;42.632;23.298;2023-08-12T14:24:38;2.90;;;2.70;;
13032;SDS011;6583;42.632;23.298;2023-08-12T14:27:05;4.15;;;2.88;;
13032;SDS011;6583;42.632;23.298;2023-08-12T14:29:32;3.58;;;3.28;;
13032;SDS011;6583;42.632;23.298;2023-08-12T14:31:59;4.38;;;2.50;;
13032;SDS011;6583;42.632;23.298;2023-08-12T14:34:25;2.30;;;2.10;;
13032;SDS011;6583;42.632;23.298;2023-08-12T14:36:52;2.42;;;2.22;;
13032;SDS011;6583;42.632;23.298;2023-08-12T14:39:19;2.90;;;2.60;;
13032;SDS011;6583;42.632;23.298;2023-08-12T14:41:48;2.70;;;2.50;;
13032;SDS011;6583;42.632;23.298;2023-08-12T14:44:14;2.50;;;2.30;;
13032;SDS011;6583;42.632;23.298;2023-08-12T14:46:41;3.70;;;2.65;;
13032;SDS011;6583;42.632;23.298;2023-08-12T14:49:08;3.13;;;2.70;;
13032;SDS011;6583;42.632;23.298;2023-08-12T14:51:35;2.83;;;2.63;;
13032;SDS011;6583;42.632;23.298;2023-08-12T14:54:01;3.92;;;2.60;;